METAR Data
IDs: Format: Raw Decoded Include TAF

Data at: 1829 UTC 16 Oct 2021

WIBB 161800Z 00000KT 7000 BKN012 26/24 Q1007 NOSIG